createdAt,value
2018-10-17T00:00:49.071Z,14.96
2018-10-17T00:03:16.239Z,15.10
2018-10-17T00:05:43.407Z,15.18
2018-10-17T00:08:10.478Z,14.98
2018-10-17T00:10:37.587Z,14.98
2018-10-17T00:13:04.691Z,14.93
2018-10-17T00:15:31.780Z,14.97
2018-10-17T00:17:58.968Z,14.95
2018-10-17T00:20:26.055Z,14.86
2018-10-17T00:22:53.228Z,15.12
2018-10-17T00:25:20.576Z,15.39
2018-10-17T00:27:47.752Z,15.38
2018-10-17T00:30:14.839Z,15.20
2018-10-17T00:32:41.949Z,15.27
2018-10-17T00:35:09.523Z,15.30
2018-10-17T00:37:36.596Z,15.29
2018-10-17T00:40:03.745Z,15.13
2018-10-17T00:42:30.837Z,15.13
2018-10-17T00:44:58.100Z,14.92
2018-10-17T00:47:25.168Z,14.95
2018-10-17T00:49:52.692Z,15.16
2018-10-17T00:52:19.764Z,15.19
2018-10-17T00:54:47.163Z,15.23
2018-10-17T00:57:14.253Z,15.08
2018-10-17T00:59:41.344Z,15.01
2018-10-17T01:02:08.541Z,14.95
2018-10-17T01:04:35.629Z,14.82
2018-10-17T01:07:02.753Z,14.84
2018-10-17T01:09:29.864Z,14.69
2018-10-17T01:11:56.956Z,14.55
2018-10-17T01:14:24.065Z,14.59
2018-10-17T01:16:51.178Z,14.49
2018-10-17T01:19:18.352Z,14.61
2018-10-17T01:21:45.515Z,14.83
2018-10-17T01:24:12.913Z,14.70
2018-10-17T01:26:40.104Z,14.82
2018-10-17T01:29:07.309Z,14.84
2018-10-17T01:31:34.445Z,14.98
2018-10-17T01:34:01.586Z,15.08
2018-10-17T01:36:28.691Z,14.94
2018-10-17T01:38:55.787Z,14.74
2018-10-17T01:41:22.877Z,14.74
2018-10-17T01:43:49.961Z,14.87
2018-10-17T01:46:17.085Z,14.89
2018-10-17T01:48:44.170Z,14.85
2018-10-17T01:51:11.236Z,14.78
2018-10-17T01:53:38.410Z,14.54
2018-10-17T01:56:05.500Z,14.70
2018-10-17T01:58:32.813Z,14.73
2018-10-17T02:00:59.915Z,14.88
2018-10-17T02:03:27.079Z,14.85
2018-10-17T02:05:54.177Z,14.84
2018-10-17T02:08:21.603Z,14.86
2018-10-17T02:10:48.689Z,14.90
2018-10-17T02:13:19.262Z,14.79
2018-10-17T02:15:53.603Z,14.72
2018-10-17T02:18:21.339Z,14.79
2018-10-17T02:20:48.792Z,14.80
2018-10-17T02:23:15.949Z,14.81
2018-10-17T02:25:43.390Z,14.67
2018-10-17T02:28:10.500Z,14.54
2018-10-17T02:30:44.806Z,14.67
2018-10-17T02:33:11.971Z,14.70
2018-10-17T02:35:39.069Z,14.74
2018-10-17T02:38:06.176Z,14.63
2018-10-17T02:40:33.409Z,14.44
2018-10-17T02:43:00.682Z,14.39
2018-10-17T02:45:27.747Z,14.69
2018-10-17T02:47:54.812Z,14.77
2018-10-17T02:50:21.904Z,14.69
2018-10-17T02:52:48.961Z,14.52
2018-10-17T02:55:16.119Z,14.52
2018-10-17T02:57:43.264Z,14.35
2018-10-17T03:00:10.327Z,14.37
2018-10-17T03:02:37.646Z,14.35
2018-10-17T03:05:05.028Z,14.54
2018-10-17T03:07:32.247Z,14.58
2018-10-17T03:09:59.362Z,14.71
2018-10-17T03:12:26.436Z,14.41
2018-10-17T03:14:53.499Z,14.37
2018-10-17T03:17:20.580Z,14.42
2018-10-17T03:19:48.176Z,14.51
2018-10-17T03:22:15.448Z,14.50
2018-10-17T03:24:42.569Z,14.47
2018-10-17T03:27:09.752Z,14.44
2018-10-17T03:29:36.816Z,14.38
2018-10-17T03:32:04.096Z,14.17
2018-10-17T03:34:31.229Z,14.19
2018-10-17T03:36:58.675Z,14.11
2018-10-17T03:39:25.871Z,14.15
2018-10-17T03:41:53.069Z,14.14
2018-10-17T03:44:20.176Z,14.31
2018-10-17T03:46:47.285Z,14.20
2018-10-17T03:49:14.418Z,14.21
2018-10-17T03:51:41.469Z,14.20
2018-10-17T03:54:08.544Z,14.36
2018-10-17T03:56:35.701Z,14.40
2018-10-17T03:59:02.921Z,14.42
2018-10-17T04:01:30.061Z,14.42
2018-10-17T04:03:57.608Z,14.50
2018-10-17T04:06:24.735Z,14.49
2018-10-17T04:08:52.112Z,14.53
2018-10-17T04:11:19.267Z,14.35
2018-10-17T04:13:46.407Z,14.53
2018-10-17T04:16:13.577Z,14.55
2018-10-17T04:18:40.738Z,14.54
2018-10-17T04:21:07.836Z,14.32
2018-10-17T04:23:34.935Z,14.57
2018-10-17T04:26:02.047Z,14.32
2018-10-17T04:28:29.124Z,14.41
2018-10-17T04:30:56.235Z,14.53
2018-10-17T04:33:23.270Z,14.59
2018-10-17T04:35:50.516Z,14.53
2018-10-17T04:38:17.767Z,14.23
2018-10-17T04:40:44.844Z,14.07
2018-10-17T04:43:12.113Z,14.02
2018-10-17T04:45:39.269Z,14.04
2018-10-17T04:48:06.390Z,14.14
2018-10-17T04:50:33.506Z,14.21
2018-10-17T04:53:00.906Z,14.21
2018-10-17T04:55:27.956Z,14.22
2018-10-17T04:57:55.115Z,14.21
2018-10-17T05:00:22.280Z,14.15
2018-10-17T05:02:49.416Z,14.22
2018-10-17T05:05:16.602Z,14.16
2018-10-17T05:07:43.613Z,14.31
2018-10-17T05:10:10.865Z,14.31
2018-10-17T05:12:38.108Z,14.34
2018-10-17T05:15:05.310Z,14.37
2018-10-17T05:17:32.528Z,14.43
2018-10-17T05:19:59.783Z,14.12
2018-10-17T05:22:27.084Z,14.01
2018-10-17T05:24:54.333Z,14.26
2018-10-17T05:27:21.423Z,14.26
2018-10-17T05:29:48.667Z,14.35
2018-10-17T05:32:16.099Z,14.12
2018-10-17T05:34:43.179Z,14.26
2018-10-17T05:37:10.324Z,14.48
2018-10-17T05:39:37.436Z,14.46
2018-10-17T05:42:04.907Z,14.37
2018-10-17T05:44:32.167Z,14.16
2018-10-17T05:46:59.305Z,14.01
2018-10-17T05:49:26.319Z,14.27
2018-10-17T05:51:53.417Z,14.15
2018-10-17T05:54:20.514Z,14.02
2018-10-17T05:56:47.875Z,14.47
2018-10-17T05:59:15.061Z,14.27
2018-10-17T06:01:42.541Z,13.87
2018-10-17T06:04:09.632Z,13.85
2018-10-17T06:06:36.896Z,13.98
2018-10-17T06:09:06.341Z,14.12
2018-10-17T06:11:33.451Z,13.97
2018-10-17T06:14:00.914Z,13.89
2018-10-17T06:16:28.363Z,13.76
2018-10-17T06:18:55.565Z,13.96
2018-10-17T06:21:22.613Z,14.17
2018-10-17T06:23:49.815Z,14.00
2018-10-17T06:26:16.987Z,13.94
2018-10-17T06:28:44.140Z,14.09
2018-10-17T06:31:11.343Z,14.19
2018-10-17T06:33:38.384Z,14.30
2018-10-17T06:36:05.480Z,14.20
2018-10-17T06:38:32.645Z,14.42
2018-10-17T06:40:59.753Z,14.50
2018-10-17T06:43:27.212Z,14.46
2018-10-17T06:45:54.596Z,14.60
2018-10-17T06:48:21.944Z,14.55
2018-10-17T06:50:49.044Z,14.74
2018-10-17T06:53:16.276Z,14.91
2018-10-17T06:55:43.483Z,14.94
2018-10-17T06:58:11.132Z,14.93
2018-10-17T07:00:38.208Z,14.98
2018-10-17T07:03:05.292Z,15.05
2018-10-17T07:05:32.360Z,15.04
2018-10-17T07:07:59.452Z,15.11
2018-10-17T07:10:26.652Z,15.19
2018-10-17T07:12:54.113Z,15.20
2018-10-17T07:15:21.212Z,15.34
2018-10-17T07:17:48.259Z,15.49
2018-10-17T07:20:15.473Z,15.49
2018-10-17T07:22:42.565Z,15.61
2018-10-17T07:25:09.801Z,15.52
2018-10-17T07:27:36.963Z,15.67
2018-10-17T07:30:05.701Z,15.82
2018-10-17T07:32:33.484Z,15.71
2018-10-17T07:35:00.735Z,15.76
2018-10-17T07:37:28.829Z,15.45
2018-10-17T07:39:56.180Z,15.65
2018-10-17T07:42:24.048Z,15.68
2018-10-17T07:44:51.154Z,15.77
2018-10-17T07:47:18.251Z,15.84
2018-10-17T07:49:45.324Z,15.87
2018-10-17T07:52:12.506Z,15.98
2018-10-17T07:54:39.675Z,16.03
2018-10-17T07:57:06.833Z,16.09
2018-10-17T07:59:33.933Z,16.16
2018-10-17T08:02:01.118Z,16.18
2018-10-17T08:04:28.223Z,16.21
2018-10-17T08:06:55.419Z,16.29
2018-10-17T08:09:22.486Z,16.33
2018-10-17T08:11:49.672Z,16.35
2018-10-17T08:14:16.878Z,16.42
2018-10-17T08:16:44.255Z,16.51
2018-10-17T08:19:11.403Z,16.57
2018-10-17T08:21:38.516Z,16.62
2018-10-17T08:24:05.864Z,16.63
2018-10-17T08:26:32.907Z,16.70
2018-10-17T08:29:00.071Z,16.75
2018-10-17T08:31:27.172Z,16.76
2018-10-17T08:33:54.328Z,16.78
2018-10-17T08:36:21.677Z,16.80
2018-10-17T08:38:49.184Z,16.82
2018-10-17T08:41:16.586Z,16.86
2018-10-17T08:43:43.676Z,16.90
2018-10-17T08:46:11.355Z,16.95
2018-10-17T08:48:38.433Z,16.98
2018-10-17T08:51:05.655Z,17.03
2018-10-17T08:53:32.819Z,17.20
2018-10-17T08:56:00.099Z,17.16
2018-10-17T08:58:27.180Z,17.23
2018-10-17T09:00:54.374Z,17.26
2018-10-17T09:03:21.539Z,17.38
2018-10-17T09:05:48.620Z,17.53
2018-10-17T09:08:15.856Z,17.65
2018-10-17T09:10:43.056Z,17.72
2018-10-17T09:13:10.773Z,17.81
2018-10-17T09:15:38.543Z,17.93
2018-10-17T09:18:05.132Z,17.98
2018-10-17T09:20:32.567Z,18.08
2018-10-17T09:23:00.232Z,18.14
2018-10-17T09:25:27.391Z,18.23
2018-10-17T09:27:55.194Z,18.35
2018-10-17T09:30:22.537Z,18.46
2018-10-17T09:32:49.925Z,18.56
2018-10-17T09:35:17.286Z,18.65
2018-10-17T09:37:44.533Z,18.70
2018-10-17T09:40:11.662Z,18.80
2018-10-17T09:42:40.021Z,18.84
2018-10-17T09:45:08.056Z,18.87
2018-10-17T09:47:35.160Z,18.99
2018-10-17T09:50:02.445Z,19.11
2018-10-17T09:52:29.548Z,19.17
2018-10-17T09:54:56.792Z,19.34
2018-10-17T09:57:24.125Z,19.32
2018-10-17T09:59:51.297Z,19.33
2018-10-17T10:02:18.402Z,19.38
2018-10-17T10:04:45.529Z,19.43
2018-10-17T10:07:13.180Z,19.48
2018-10-17T10:09:40.351Z,19.53
2018-10-17T10:12:07.454Z,19.68
2018-10-17T10:14:35.312Z,19.70
2018-10-17T10:17:02.475Z,19.81
2018-10-17T10:19:29.509Z,19.83
2018-10-17T10:21:57.117Z,19.87
2018-10-17T10:24:24.248Z,20.08
2018-10-17T10:26:51.391Z,20.15
2018-10-17T10:29:18.899Z,20.22
2018-10-17T10:31:46.456Z,20.24
2018-10-17T10:34:13.608Z,20.39
2018-10-17T10:36:40.611Z,20.46
2018-10-17T10:39:09.031Z,20.57
2018-10-17T10:41:36.255Z,20.70
2018-10-17T10:44:03.455Z,20.64
2018-10-17T10:46:30.555Z,20.71
2018-10-17T10:48:57.688Z,20.69
2018-10-17T10:51:24.787Z,20.71
2018-10-17T10:53:51.924Z,20.66
2018-10-17T10:56:19.180Z,20.74
2018-10-17T10:58:46.262Z,20.78
2018-10-17T11:01:13.292Z,20.77
2018-10-17T11:03:40.649Z,20.73
2018-10-17T11:06:08.442Z,20.74
2018-10-17T11:08:35.509Z,20.79
2018-10-17T11:11:02.729Z,20.77
2018-10-17T11:13:29.845Z,20.89
2018-10-17T11:15:57.040Z,20.91
2018-10-17T11:18:24.102Z,20.97
2018-10-17T11:20:51.479Z,21.02
2018-10-17T11:23:19.493Z,21.09
2018-10-17T11:25:46.721Z,21.13
2018-10-17T11:28:13.963Z,21.24
2018-10-17T11:30:41.714Z,21.29
2018-10-17T11:33:08.967Z,21.23
2018-10-17T11:35:36.050Z,21.26
2018-10-17T11:38:03.264Z,21.24
2018-10-17T11:40:30.642Z,21.47
2018-10-17T11:42:57.632Z,21.53
2018-10-17T11:45:24.676Z,21.54
2018-10-17T11:47:51.854Z,21.59
2018-10-17T11:50:18.974Z,21.56
2018-10-17T11:52:46.500Z,21.69
2018-10-17T11:55:13.745Z,21.78
2018-10-17T11:57:41.165Z,21.91
2018-10-17T12:00:10.093Z,22.17
2018-10-17T12:02:37.389Z,22.06
2018-10-17T12:05:07.154Z,22.02
2018-10-17T12:07:33.953Z,22.05
2018-10-17T12:10:01.545Z,22.12
2018-10-17T12:12:28.863Z,22.59
2018-10-17T12:14:56.232Z,22.77
2018-10-17T12:17:23.731Z,22.79
2018-10-17T12:19:51.517Z,23.07
2018-10-17T12:22:18.524Z,23.13
2018-10-17T12:24:45.648Z,23.50
2018-10-17T12:27:12.790Z,23.30
2018-10-17T12:29:39.814Z,23.49
2018-10-17T12:32:06.911Z,23.88
2018-10-17T12:34:35.234Z,24.14
2018-10-17T12:37:02.385Z,23.84
2018-10-17T12:39:29.670Z,23.88
2018-10-17T12:41:56.700Z,24.00
2018-10-17T12:44:23.929Z,24.30
2018-10-17T12:46:51.023Z,24.17
2018-10-17T12:49:18.664Z,24.41
2018-10-17T12:51:45.745Z,24.77
2018-10-17T12:54:12.833Z,25.44
2018-10-17T12:56:39.993Z,24.88
2018-10-17T12:59:07.129Z,24.81
2018-10-17T13:01:34.399Z,24.46
2018-10-17T13:04:01.755Z,24.97
2018-10-17T13:06:28.841Z,24.85
2018-10-17T13:08:55.909Z,25.01
2018-10-17T13:11:23.089Z,25.01
2018-10-17T13:13:50.076Z,25.31
2018-10-17T13:16:17.182Z,25.26
2018-10-17T13:18:44.238Z,24.97
2018-10-17T13:21:11.431Z,24.87
2018-10-17T13:23:38.498Z,24.78
2018-10-17T13:26:05.685Z,24.85
2018-10-17T13:28:32.772Z,24.92
2018-10-17T13:30:59.953Z,24.76
2018-10-17T13:33:27.319Z,24.98
2018-10-17T13:35:54.665Z,25.77
2018-10-17T13:38:22.192Z,26.18
2018-10-17T13:40:49.329Z,26.14
2018-10-17T13:43:16.589Z,25.54
2018-10-17T13:45:44.183Z,24.85
2018-10-17T13:48:11.337Z,24.83
2018-10-17T13:50:38.508Z,24.61
2018-10-17T13:53:06.032Z,24.90
2018-10-17T13:55:33.113Z,24.80
2018-10-17T13:58:00.305Z,24.91
2018-10-17T14:00:27.433Z,24.42
2018-10-17T14:02:54.532Z,24.56
2018-10-17T14:05:21.609Z,24.28
2018-10-17T14:07:48.723Z,24.42
2018-10-17T14:10:15.775Z,24.34
2018-10-17T14:12:42.855Z,24.26
2018-10-17T14:15:09.943Z,24.25
2018-10-17T14:17:37.027Z,23.89
2018-10-17T14:20:04.207Z,24.06
2018-10-17T14:22:31.288Z,24.07
2018-10-17T14:24:58.517Z,24.02
2018-10-17T14:27:25.619Z,23.76
2018-10-17T14:29:52.807Z,23.76
2018-10-17T14:32:19.892Z,23.63
2018-10-17T14:34:47.095Z,23.55
2018-10-17T14:37:14.268Z,23.48
2018-10-17T14:39:41.382Z,23.35
2018-10-17T14:42:09.229Z,23.08
2018-10-17T14:44:36.240Z,22.99
2018-10-17T14:47:03.385Z,23.07
2018-10-17T14:49:30.533Z,23.04
2018-10-17T14:51:58.139Z,22.83
2018-10-17T14:54:25.228Z,22.75
2018-10-17T14:56:52.342Z,22.78
2018-10-17T14:59:19.812Z,22.81
2018-10-17T15:01:46.968Z,22.81
2018-10-17T15:04:14.126Z,22.72
2018-10-17T15:06:41.259Z,22.66
2018-10-17T15:09:08.866Z,22.60
2018-10-17T15:11:36.685Z,22.46
2018-10-17T15:14:03.712Z,22.44
2018-10-17T15:16:30.803Z,22.35
2018-10-17T15:18:57.976Z,22.37
2018-10-17T15:21:25.092Z,22.24
2018-10-17T15:23:52.216Z,22.27
2018-10-17T15:26:19.512Z,22.29
2018-10-17T15:28:46.584Z,22.27
2018-10-17T15:31:13.726Z,22.21
2018-10-17T15:33:40.778Z,22.17
2018-10-17T15:36:07.922Z,22.00
2018-10-17T15:38:35.005Z,21.93
2018-10-17T15:41:02.129Z,21.84
2018-10-17T15:43:29.214Z,21.73
2018-10-17T15:45:56.280Z,21.70
2018-10-17T15:48:23.382Z,21.63
2018-10-17T15:50:50.544Z,21.54
2018-10-17T15:53:17.676Z,21.46
2018-10-17T15:55:44.945Z,21.36
2018-10-17T15:58:12.010Z,21.24
2018-10-17T16:00:39.093Z,21.17
2018-10-17T16:03:06.200Z,21.12
2018-10-17T16:05:33.267Z,21.03
2018-10-17T16:08:00.962Z,20.97
2018-10-17T16:10:28.110Z,20.91
2018-10-17T16:12:55.176Z,20.85
2018-10-17T16:15:22.284Z,20.79
2018-10-17T16:17:49.454Z,20.73
2018-10-17T16:20:16.735Z,20.94
2018-10-17T16:22:44.111Z,21.02
2018-10-17T16:25:11.155Z,21.09
2018-10-17T16:27:38.292Z,21.07
2018-10-17T16:30:08.041Z,21.41
2018-10-17T16:32:35.487Z,21.28
2018-10-17T16:35:02.574Z,21.02
2018-10-17T16:37:29.637Z,20.67
2018-10-17T16:39:56.700Z,20.32
2018-10-17T16:42:24.051Z,20.21
2018-10-17T16:44:51.151Z,20.30
2018-10-17T16:47:18.246Z,20.42
2018-10-17T16:49:45.375Z,20.51
2018-10-17T16:52:12.417Z,20.54
2018-10-17T16:54:39.529Z,20.04
2018-10-17T16:57:07.946Z,19.72
2018-10-17T16:59:35.352Z,19.59
2018-10-17T17:02:02.438Z,19.38
2018-10-17T17:04:29.694Z,19.42
2018-10-17T17:06:56.850Z,19.19
2018-10-17T17:09:23.958Z,19.12
2018-10-17T17:11:51.089Z,19.12
2018-10-17T17:14:18.405Z,18.91
2018-10-17T17:16:46.415Z,18.88
2018-10-17T17:19:14.001Z,18.73
2018-10-17T17:21:41.270Z,18.76
2018-10-17T17:24:08.401Z,18.62
2018-10-17T17:26:35.541Z,18.54
2018-10-17T17:29:02.683Z,18.34
2018-10-17T17:31:29.787Z,18.30
2018-10-17T17:33:56.984Z,18.10
2018-10-17T17:36:24.088Z,17.99
2018-10-17T17:38:51.247Z,17.94
2018-10-17T17:41:18.379Z,17.87
2018-10-17T17:43:45.620Z,17.90
2018-10-17T17:46:12.761Z,17.90
2018-10-17T17:48:39.832Z,17.83
2018-10-17T17:51:06.915Z,17.81
2018-10-17T17:53:33.979Z,17.59
2018-10-17T17:56:01.073Z,17.64
2018-10-17T17:58:28.264Z,17.48
2018-10-17T18:00:55.281Z,17.49
2018-10-17T18:03:22.487Z,17.40
2018-10-17T18:05:56.667Z,17.32
2018-10-17T18:08:24.057Z,17.32
2018-10-17T18:10:51.132Z,17.40
2018-10-17T18:13:18.203Z,17.64
2018-10-17T18:15:45.689Z,17.80
2018-10-17T18:18:13.015Z,17.47
2018-10-17T18:20:40.109Z,17.23
2018-10-17T18:23:07.233Z,17.35
2018-10-17T18:25:34.404Z,17.10
2018-10-17T18:28:02.378Z,16.83
2018-10-17T18:30:29.428Z,16.79
2018-10-17T18:32:56.578Z,16.67
2018-10-17T18:35:23.672Z,16.79
2018-10-17T18:37:50.756Z,17.23
2018-10-17T18:40:18.010Z,16.97
2018-10-17T18:42:44.984Z,16.77
2018-10-17T18:45:12.068Z,16.50
2018-10-17T18:47:39.538Z,16.43
2018-10-17T18:50:06.899Z,16.36
2018-10-17T18:52:33.962Z,16.27
2018-10-17T18:55:01.079Z,16.18
2018-10-17T18:57:28.249Z,16.14
2018-10-17T18:59:55.326Z,16.02
2018-10-17T19:02:22.398Z,16.10
2018-10-17T19:04:49.480Z,16.07
2018-10-17T19:07:16.960Z,15.91
2018-10-17T19:09:44.075Z,16.00
2018-10-17T19:12:11.314Z,15.97
2018-10-17T19:14:38.631Z,15.96
2018-10-17T19:17:06.727Z,15.93
2018-10-17T19:19:34.565Z,15.87
2018-10-17T19:22:01.714Z,15.85
2018-10-17T19:24:28.817Z,15.67
2018-10-17T19:26:55.917Z,15.61
2018-10-17T19:29:23.004Z,15.54
2018-10-17T19:31:50.198Z,15.47
2018-10-17T19:34:17.380Z,15.42
2018-10-17T19:36:44.558Z,15.46
2018-10-17T19:39:12.741Z,15.34
2018-10-17T19:41:40.276Z,15.28
2018-10-17T19:44:07.870Z,15.31
2018-10-17T19:46:34.999Z,15.12
2018-10-17T19:49:02.153Z,15.19
2018-10-17T19:51:36.132Z,14.97
2018-10-17T19:54:03.272Z,15.05
2018-10-17T19:56:30.567Z,15.16
2018-10-17T19:58:58.223Z,15.23
2018-10-17T20:01:26.096Z,15.43
2018-10-17T20:03:53.164Z,15.16
2018-10-17T20:06:20.412Z,15.03
2018-10-17T20:08:47.668Z,15.09
2018-10-17T20:11:14.768Z,15.40
2018-10-17T20:13:41.841Z,15.44
2018-10-17T20:16:09.223Z,15.13
2018-10-17T20:18:36.607Z,15.32
2018-10-17T20:21:03.757Z,15.37
2018-10-17T20:23:31.116Z,15.34
2018-10-17T20:25:58.202Z,15.12
2018-10-17T20:28:25.324Z,15.20
2018-10-17T20:30:52.807Z,15.09
2018-10-17T20:33:20.052Z,15.06
2018-10-17T20:35:47.215Z,15.07
2018-10-17T20:38:14.636Z,15.18
2018-10-17T20:40:41.948Z,15.33
2018-10-17T20:43:09.020Z,15.06
2018-10-17T20:45:37.421Z,14.96
2018-10-17T20:48:04.574Z,15.07
2018-10-17T20:50:32.266Z,15.05
2018-10-17T20:52:59.894Z,14.99
2018-10-17T20:55:27.055Z,14.85
2018-10-17T20:57:54.143Z,14.94
2018-10-17T21:00:21.802Z,14.90
2018-10-17T21:02:49.216Z,15.01
2018-10-17T21:05:17.071Z,15.22
2018-10-17T21:07:44.602Z,14.88
2018-10-17T21:10:12.968Z,14.91
2018-10-17T21:12:40.051Z,14.99
2018-10-17T21:15:08.008Z,15.17
2018-10-17T21:17:35.355Z,14.97
2018-10-17T21:20:02.543Z,14.58
2018-10-17T21:22:30.163Z,14.52
2018-10-17T21:24:57.252Z,14.61
2018-10-17T21:27:24.857Z,14.66
2018-10-17T21:29:52.544Z,14.93
2018-10-17T21:32:20.162Z,14.88
2018-10-17T21:34:47.304Z,14.96
2018-10-17T21:37:14.843Z,14.78
2018-10-17T21:39:42.124Z,15.07
2018-10-17T21:42:09.631Z,14.72
2018-10-17T21:44:36.707Z,14.73
2018-10-17T21:47:04.271Z,14.48
2018-10-17T21:49:31.603Z,14.80
2018-10-17T21:51:58.760Z,14.71
2018-10-17T21:54:25.824Z,14.55
2018-10-17T21:56:52.923Z,14.55
2018-10-17T21:59:19.999Z,14.68
2018-10-17T22:01:47.097Z,14.63
2018-10-17T22:04:14.253Z,14.54
2018-10-17T22:06:41.305Z,14.72
2018-10-17T22:09:09.210Z,15.01
2018-10-17T22:11:36.359Z,14.86
2018-10-17T22:14:03.557Z,14.76
2018-10-17T22:16:36.456Z,14.92
2018-10-17T22:19:03.720Z,14.60
2018-10-17T22:21:30.737Z,14.77
2018-10-17T22:23:57.928Z,14.58
2018-10-17T22:26:25.047Z,14.82
2018-10-17T22:28:52.209Z,14.93
2018-10-17T22:31:20.128Z,14.93
2018-10-17T22:33:47.313Z,14.94
2018-10-17T22:36:14.396Z,14.86
2018-10-17T22:38:41.832Z,14.96
2018-10-17T22:41:08.965Z,14.90
2018-10-17T22:43:36.087Z,14.73
2018-10-17T22:46:03.291Z,14.96
2018-10-17T22:48:30.436Z,14.79
2018-10-17T22:50:57.592Z,14.70
2018-10-17T22:53:24.687Z,14.85
2018-10-17T22:55:51.800Z,15.10
2018-10-17T22:58:18.835Z,15.26
2018-10-17T23:00:45.922Z,15.01
2018-10-17T23:03:13.307Z,14.74
2018-10-17T23:05:40.386Z,14.85
2018-10-17T23:08:07.568Z,15.04
2018-10-17T23:10:34.678Z,14.86
2018-10-17T23:13:01.805Z,14.97
2018-10-17T23:15:28.895Z,15.02
2018-10-17T23:17:56.042Z,15.27
2018-10-17T23:20:23.197Z,15.49
2018-10-17T23:22:50.304Z,15.37
2018-10-17T23:25:17.476Z,15.31
2018-10-17T23:27:44.556Z,15.03
2018-10-17T23:30:11.635Z,14.78
2018-10-17T23:32:39.320Z,15.25
2018-10-17T23:35:06.502Z,15.14
2018-10-17T23:37:33.837Z,14.88
2018-10-17T23:40:00.915Z,14.69
2018-10-17T23:42:28.106Z,14.74
2018-10-17T23:44:55.260Z,14.91
2018-10-17T23:47:22.420Z,15.16
2018-10-17T23:49:49.568Z,15.19
2018-10-17T23:52:17.033Z,15.17
2018-10-17T23:54:44.184Z,15.34
2018-10-17T23:57:11.260Z,15.19
2018-10-17T23:59:38.388Z,15.13
